This is the latest recevied weather packets stored in our database for station/object N2MLB-WX. If no packets are shown the sender has not sent any weather packets the latest 1 day(s).
| Time | Temp. | Humidity | Pressure | Rain* | Wind** | Luminosity | Snow |
|---|---|---|---|---|---|---|---|
| 1778014040 | 12.78° C | 90% | 1003 hPa | 4.06 mm | 0 m/s | 8 W/m² | - |
| 1778013739 | 12.78° C | 89% | 1003 hPa | 12.7 mm | 1.34 m/s, 281° | 7 W/m² | - |
| 1778013151 | 13.33° C | 85% | 1003 hPa | 0 mm | 1.79 m/s, 202° | 11 W/m² | - |
| 1778012839 | 13.33° C | 86% | 1003 hPa | 0 mm | 1.79 m/s, 300° | 15 W/m² | - |
| 1778012540 | 13.33° C | 86% | 1003 hPa | 0 mm | 0.45 m/s, 72° | 14 W/m² | - |
| 1778012240 | 13.33° C | 86% | 1003 hPa | 0 mm | 1.79 m/s, 43° | 14 W/m² | - |
| 1778011939 | 13.33° C | 84% | 1003 hPa | 0 mm | 0 m/s | 13 W/m² | - |
| 1778011641 | 13.89° C | 83% | 1003 hPa | 0 mm | 0 m/s | 11 W/m² | - |
| 1778011339 | 14.44° C | 80% | 1003 hPa | 0 mm | 1.79 m/s, 75° | 14 W/m² | - |
| 1778011040 | 15° C | 78% | 1003 hPa | 0 mm | 0.45 m/s, 80° | 9 W/m² | - |
| 1778010739 | 15° C | 78% | 1003 hPa | 0 mm | 2.68 m/s, 67° | 14 W/m² | - |
| 1778010439 | 14.44° C | 77% | 1003 hPa | 0 mm | 1.79 m/s, 285° | 9 W/m² | - |
| 1778010140 | 14.44° C | 78% | 1003 hPa | 0 mm | 0.89 m/s, 78° | 10 W/m² | - |
| 1778009840 | 15° C | 77% | 1003 hPa | 0 mm | 0.89 m/s, 159° | 12 W/m² | - |
| 1778009540 | 14.44° C | 78% | 1003 hPa | 0 mm | 1.34 m/s, 3° | 13 W/m² | - |
| 1778009240 | 15° C | 78% | 1003 hPa | 0 mm | 0 m/s | 13 W/m² | - |
| 1778008939 | 15° C | 76% | 1003 hPa | 0 mm | 0 m/s | 16 W/m² | - |
| 1778008640 | 15° C | 76% | 1003 hPa | 0 mm | 2.24 m/s, 242° | 16 W/m² | - |
| 1778008340 | 15.56° C | 76% | 1003 hPa | 0 mm | 2.24 m/s, 10° | 45 W/m² | - |
| 1778008039 | 15.56° C | 75% | 1003 hPa | 0 mm | 2.68 m/s, 66° | 51 W/m² | - |
| 1778007739 | 15.56° C | 76% | 1003 hPa | 0 mm | 0.89 m/s, 208° | 26 W/m² | - |
| 1778007440 | 16.11° C | 74% | 1002 hPa | 0 mm | 0.45 m/s, 11° | 38 W/m² | - |
| 1778007142 | 17.22° C | 69% | 1002 hPa | 0 mm | 0.89 m/s, 84° | 67 W/m² | - |
| 1778006840 | 17.22° C | 70% | 1002 hPa | 0 mm | 1.34 m/s, 316° | 74 W/m² | - |
| 1778006539 | 17.78° C | 69% | 1002 hPa | 0 mm | 0.45 m/s, 352° | 93 W/m² | - |
* Rain latest hour (hover to see other rain measurements)
** Current wind speed in m/s (hover to see current wind gust speed)